Time;durP1;ratioP1;P1;durP2;ratioP2;P2;SDS_P1;SDS_P2;PMS_P1;PMS_P2;Temp;Humidity;BMP_temperature;BMP_pressure;BME280_temperature;BME280_humidity;BME280_pressure;Samples;Min_cycle;Max_cycle;Signal;HPM_P1;HPM_P2
2022/03/10 00:00:48;;;;;;;7.73;6.93;;;5.50;99.90;;;;;;5975873;24;20497;-68
2022/03/10 00:03:36;;;;;;;7.50;6.80;;;5.50;99.90;;;;;;5976155;23;20926;-68
2022/03/10 00:06:24;;;;;;;11.23;8.10;;;5.40;99.90;;;;;;5977005;24;20426;-68
2022/03/10 00:09:12;;;;;;;8.70;7.80;;;5.40;99.90;;;;;;5975039;24;20994;-68
2022/03/10 00:12:02;;;;;;;10.33;7.63;;;5.40;99.90;;;;;;5982217;23;20458;-67
2022/03/10 00:14:51;;;;;;;9.97;7.90;;;5.40;99.90;;;;;;5987820;23;20478;-68
2022/03/10 00:17:39;;;;;;;8.50;7.60;;;5.40;99.90;;;;;;5976122;24;20474;-68
2022/03/10 00:20:27;;;;;;;11.60;8.47;;;5.30;99.90;;;;;;5974696;24;20783;-68
2022/03/10 00:23:15;;;;;;;10.37;8.40;;;5.30;99.90;;;;;;5985100;24;20494;-68
2022/03/10 00:26:04;;;;;;;9.33;7.47;;;5.30;99.90;;;;;;5975049;24;20465;-68
2022/03/10 00:28:52;;;;;;;9.13;8.20;;;5.20;99.90;;;;;;5975905;24;20732;-68
2022/03/10 00:31:42;;;;;;;7.90;7.10;;;5.20;99.90;;;;;;5975988;24;20419;-68
2022/03/10 00:34:30;;;;;;;7.67;6.90;;;5.10;99.90;;;;;;5978537;24;20620;-68
2022/03/10 00:37:19;;;;;;;10.27;9.27;;;5.10;99.90;;;;;;5974830;24;20526;-71
2022/03/10 00:40:09;;;;;;;9.07;8.17;;;5.00;99.90;;;;;;5974682;24;20479;-67
2022/03/10 00:42:59;;;;;;;8.97;7.60;;;5.00;99.90;;;;;;5975779;24;20467;-68
2022/03/10 00:45:47;;;;;;;8.13;6.83;;;5.00;99.90;;;;;;6003393;23;20473;-67
2022/03/10 00:48:37;;;;;;;9.43;8.40;;;5.00;99.90;;;;;;6003220;23;20517;-68
2022/03/10 00:51:26;;;;;;;8.77;7.57;;;4.90;99.90;;;;;;6002767;23;21052;-68
2022/03/10 00:54:14;;;;;;;9.67;7.73;;;4.90;99.90;;;;;;5992427;23;20473;-68
2022/03/10 00:57:10;;;;;;;8.70;7.70;;;5.00;99.90;;;;;;5985151;24;20479;-69
2022/03/10 00:59:58;;;;;;;9.33;7.80;;;4.90;99.90;;;;;;5975822;24;20423;-69
2022/03/10 01:02:46;;;;;;;8.80;7.93;;;4.80;99.90;;;;;;5974637;24;20533;-68
2022/03/10 01:05:36;;;;;;;8.50;7.70;;;4.80;99.90;;;;;;5972444;24;20576;-68
2022/03/10 01:08:24;;;;;;;9.80;8.40;;;4.70;99.90;;;;;;5983736;24;20506;-68
2022/03/10 01:11:12;;;;;;;7.83;6.87;;;4.70;99.90;;;;;;5975517;24;20667;-68
2022/03/10 01:14:01;;;;;;;9.57;7.60;;;4.70;99.90;;;;;;5978628;23;20491;-68
2022/03/10 01:16:49;;;;;;;9.83;8.13;;;4.60;99.90;;;;;;6002384;23;20900;-68
2022/03/10 01:19:38;;;;;;;10.17;7.80;;;4.60;99.90;;;;;;6003992;23;20418;-68
2022/03/10 01:22:27;;;;;;;9.70;8.70;;;4.60;99.90;;;;;;6010938;23;20515;-68
2022/03/10 01:25:16;;;;;;;8.70;7.83;;;4.50;99.90;;;;;;6002111;23;20916;-67
2022/03/10 01:28:05;;;;;;;9.43;7.33;;;4.50;99.90;;;;;;6002217;23;20489;-68
2022/03/10 01:30:54;;;;;;;9.73;7.50;;;4.40;99.90;;;;;;6002126;23;20441;-68
2022/03/10 01:33:43;;;;;;;9.87;7.90;;;4.40;99.90;;;;;;6000579;23;20592;-68
2022/03/10 01:36:31;;;;;;;9.50;8.00;;;4.40;99.90;;;;;;5974365;24;20450;-68
2022/03/10 01:39:20;;;;;;;9.70;8.27;;;4.40;99.90;;;;;;5983765;24;20497;-68
2022/03/10 01:42:08;;;;;;;9.43;7.60;;;4.30;99.90;;;;;;5974945;24;20613;-68
2022/03/10 01:44:57;;;;;;;9.30;8.40;;;4.20;99.90;;;;;;5972971;24;20980;-68
2022/03/10 01:47:45;;;;;;;9.17;8.00;;;4.20;99.90;;;;;;5974787;24;20488;-68
2022/03/10 01:50:33;;;;;;;9.97;8.10;;;4.10;99.90;;;;;;5974165;24;21023;-68
2022/03/10 01:53:22;;;;;;;11.37;8.30;;;4.10;99.90;;;;;;5988407;24;20510;-69
2022/03/10 01:56:15;;;;;;;8.87;7.97;;;4.10;99.90;;;;;;5974004;24;20450;-68
2022/03/10 01:59:04;;;;;;;10.30;8.77;;;4.10;99.90;;;;;;5974827;24;20558;-68
2022/03/10 02:01:52;;;;;;;9.03;7.50;;;4.10;99.90;;;;;;5973994;24;20529;-67
2022/03/10 02:04:41;;;;;;;10.90;9.17;;;4.10;99.90;;;;;;5988162;23;20456;-68
2022/03/10 02:10:35;;;;;;;10.27;8.50;;;4.10;99.90;;;;;;6003563;23;20488;-68
2022/03/10 02:13:24;;;;;;;9.70;8.50;;;4.00;99.90;;;;;;6003124;23;20643;-68
2022/03/10 02:19:19;;;;;;;10.07;8.27;;;4.00;99.90;;;;;;6000689;23;20432;-68
2022/03/10 02:22:11;;;;;;;9.33;8.27;;;3.90;99.90;;;;;;6002311;23;20517;-68
2022/03/10 02:24:59;;;;;;;10.87;8.53;;;3.90;99.90;;;;;;5985997;23;20561;-68
2022/03/10 02:27:50;;;;;;;10.77;8.70;;;3.90;99.90;;;;;;5985118;24;20418;-68
2022/03/10 02:30:39;;;;;;;10.07;8.27;;;3.90;99.90;;;;;;5975089;24;21086;-68
2022/03/10 02:33:27;;;;;;;9.93;8.30;;;3.90;99.90;;;;;;5973651;24;20578;-68
2022/03/10 02:36:16;;;;;;;11.50;8.70;;;3.80;99.90;;;;;;6000624;23;20547;-68
2022/03/10 02:39:05;;;;;;;10.57;8.33;;;3.80;99.90;;;;;;6002166;23;20449;-68
2022/03/10 02:41:54;;;;;;;10.07;8.20;;;3.80;99.90;;;;;;6002298;23;20624;-72
2022/03/10 02:44:42;;;;;;;12.20;8.60;;;3.80;99.90;;;;;;5999460;23;20512;-67
2022/03/10 02:47:30;;;;;;;11.57;9.37;;;3.80;99.90;;;;;;6001089;23;20550;-68
2022/03/10 02:50:26;;;;;;;10.60;8.93;;;3.80;99.90;;;;;;6011788;23;20948;-68
2022/03/10 02:53:16;;;;;;;11.90;8.90;;;3.80;99.90;;;;;;6001871;23;20467;-68
2022/03/10 02:56:05;;;;;;;11.00;8.53;;;3.80;99.90;;;;;;6001753;23;20441;-68
2022/03/10 02:58:53;;;;;;;10.03;8.40;;;3.80;99.90;;;;;;6003432;23;20517;-68
2022/03/10 03:01:41;;;;;;;11.23;9.00;;;3.70;99.90;;;;;;6002509;23;20497;-67
2022/03/10 03:04:30;;;;;;;10.47;9.10;;;3.70;99.90;;;;;;5988106;23;20908;-68
2022/03/10 03:07:18;;;;;;;9.03;8.13;;;3.60;99.90;;;;;;5973533;24;20457;-67
2022/03/10 03:10:08;;;;;;;9.70;8.70;;;3.60;99.90;;;;;;5973403;24;20578;-68
2022/03/10 03:12:57;;;;;;;10.20;8.60;;;3.60;99.90;;;;;;5972400;24;20450;-67
2022/03/10 03:15:45;;;;;;;11.03;9.37;;;3.60;99.90;;;;;;5972422;24;20746;-68
2022/03/10 03:18:34;;;;;;;10.90;8.67;;;3.60;99.90;;;;;;5983417;24;20793;-68
2022/03/10 03:21:23;;;;;;;11.93;8.90;;;3.50;99.90;;;;;;5973138;24;20410;-68
2022/03/10 03:24:11;;;;;;;9.97;8.60;;;3.50;99.90;;;;;;5979474;24;20780;-68
2022/03/10 03:26:59;;;;;;;9.30;8.33;;;3.50;99.90;;;;;;5972114;24;20422;-68
2022/03/10 03:29:49;;;;;;;10.47;9.00;;;3.50;99.90;;;;;;5974181;24;20414;-68
2022/03/10 03:32:37;;;;;;;11.57;9.10;;;3.40;99.90;;;;;;5974183;24;20478;-68
2022/03/10 03:35:26;;;;;;;9.97;8.63;;;3.40;99.90;;;;;;5974266;24;20742;-68
2022/03/10 03:38:14;;;;;;;10.30;9.00;;;3.40;99.90;;;;;;5982027;24;20450;-68
2022/03/10 03:41:02;;;;;;;9.47;8.40;;;3.30;99.90;;;;;;5972903;24;20811;-68
2022/03/10 03:43:50;;;;;;;13.07;9.80;;;3.30;99.90;;;;;;5959690;24;20976;-68
2022/03/10 03:46:40;;;;;;;10.40;9.00;;;3.30;99.90;;;;;;5973377;24;20467;-68
2022/03/10 03:49:31;;;;;;;13.13;10.10;;;3.30;99.90;;;;;;5975628;24;20422;-68
2022/03/10 03:52:19;;;;;;;10.40;9.13;;;3.30;99.90;;;;;;5977118;24;20482;-68
2022/03/10 03:55:09;;;;;;;10.37;8.60;;;3.30;99.90;;;;;;5975491;24;20450;-68
2022/03/10 03:57:57;;;;;;;11.27;9.27;;;3.30;99.90;;;;;;5976617;24;20810;-68
2022/03/10 04:00:45;;;;;;;9.53;8.53;;;3.20;99.90;;;;;;5976352;24;20747;-68
2022/03/10 04:03:37;;;;;;;11.23;9.03;;;3.20;99.90;;;;;;5977055;24;20446;-68
2022/03/10 04:06:26;;;;;;;11.00;9.33;;;3.20;99.90;;;;;;5977825;24;20822;-68
2022/03/10 04:09:14;;;;;;;10.80;8.97;;;3.20;99.90;;;;;;5978432;24;20446;-67
2022/03/10 04:12:03;;;;;;;10.70;9.10;;;3.10;99.90;;;;;;5976654;24;20843;-68
2022/03/10 04:14:51;;;;;;;10.80;9.33;;;3.20;99.90;;;;;;5954641;24;21004;-67
2022/03/10 04:17:40;;;;;;;10.53;9.10;;;3.10;99.90;;;;;;5975522;24;20834;-67
2022/03/10 04:20:33;;;;;;;10.33;9.17;;;3.10;99.90;;;;;;5985907;24;20742;-67
2022/03/10 04:23:21;;;;;;;10.70;9.43;;;3.10;99.90;;;;;;5990193;24;20437;-68
2022/03/10 04:26:10;;;;;;;12.80;9.93;;;3.10;99.90;;;;;;5979170;24;20525;-69
2022/03/10 04:29:04;;;;;;;12.00;9.47;;;3.10;99.90;;;;;;5975738;24;20924;-68
2022/03/10 04:31:53;;;;;;;11.60;9.53;;;3.10;99.90;;;;;;5975205;24;20538;-68
2022/03/10 04:34:42;;;;;;;12.43;9.93;;;3.10;99.90;;;;;;5974176;24;20454;-68
2022/03/10 04:37:32;;;;;;;11.00;9.00;;;3.10;99.90;;;;;;5973363;24;20418;-67
2022/03/10 04:40:21;;;;;;;12.23;9.87;;;3.00;99.90;;;;;;5957049;24;20428;-68
2022/03/10 04:43:12;;;;;;;10.47;9.33;;;3.00;99.90;;;;;;5973882;24;20901;-68
2022/03/10 04:46:00;;;;;;;12.43;9.43;;;3.00;99.90;;;;;;5974613;24;20529;-68
2022/03/10 04:48:48;;;;;;;12.73;9.30;;;3.00;99.90;;;;;;5975442;24;20936;-68
2022/03/10 04:51:37;;;;;;;13.20;9.57;;;3.00;99.90;;;;;;5981999;24;20506;-68
2022/03/10 04:54:26;;;;;;;13.43;9.80;;;2.90;99.90;;;;;;5975579;24;20524;-68
2022/03/10 04:57:14;;;;;;;11.10;9.57;;;2.90;99.90;;;;;;5980348;24;20898;-68
2022/03/10 05:00:05;;;;;;;12.63;10.00;;;2.90;99.90;;;;;;5979078;24;20438;-68
2022/03/10 05:02:53;;;;;;;13.10;9.90;;;2.90;99.90;;;;;;5979982;24;20439;-68
2022/03/10 05:05:42;;;;;;;14.20;11.23;;;2.90;99.90;;;;;;5979701;24;20446;-68
2022/03/10 05:08:30;;;;;;;13.07;10.20;;;2.90;99.90;;;;;;5976720;24;20811;-67
2022/03/10 05:11:19;;;;;;;12.60;9.87;;;2.90;99.90;;;;;;5976242;24;20498;-68
2022/03/10 05:14:08;;;;;;;13.57;10.70;;;2.80;99.90;;;;;;5935539;24;1006425;-67
2022/03/10 05:16:57;;;;;;;11.17;9.73;;;2.80;99.90;;;;;;5978143;24;20194;-67
2022/03/10 05:19:47;;;;;;;12.90;11.00;;;2.80;99.90;;;;;;5987718;24;20447;-67
2022/03/10 05:22:46;;;;;;;11.30;10.13;;;2.80;99.90;;;;;;5976004;24;20446;-68
2022/03/10 05:25:36;;;;;;;12.23;10.00;;;2.70;99.90;;;;;;5975867;24;20529;-68
2022/03/10 05:28:29;;;;;;;14.73;10.47;;;2.80;99.90;;;;;;5969469;24;20902;-68
2022/03/10 05:31:17;;;;;;;13.77;10.30;;;2.80;99.90;;;;;;5957044;24;20418;-67
2022/03/10 05:34:05;;;;;;;12.00;9.70;;;2.80;99.90;;;;;;5975982;24;20445;-68
2022/03/10 05:36:54;;;;;;;12.23;9.83;;;2.70;99.90;;;;;;5976354;24;20450;-67
2022/03/10 05:39:44;;;;;;;13.83;11.00;;;2.70;99.90;;;;;;5977578;24;20551;-68
2022/03/10 05:42:33;;;;;;;13.73;10.90;;;2.70;99.90;;;;;;5966614;24;20958;-68
2022/03/10 05:45:25;;;;;;;15.00;11.07;;;2.70;99.90;;;;;;5951549;24;21080;-67
2022/03/10 05:48:13;;;;;;;11.87;10.27;;;2.70;99.90;;;;;;5987442;23;20415;-67
2022/03/10 05:51:04;;;;;;;13.77;10.60;;;2.70;99.90;;;;;;5986143;24;20493;-68
2022/03/10 05:53:52;;;;;;;13.47;10.60;;;2.70;99.90;;;;;;5977572;24;20536;-67
2022/03/10 05:56:41;;;;;;;12.70;11.03;;;2.70;99.90;;;;;;5978051;24;20431;-68
2022/03/10 05:59:29;;;;;;;13.20;10.90;;;2.70;99.90;;;;;;5975141;24;20502;-68
2022/03/10 06:02:19;;;;;;;14.07;11.00;;;2.70;99.90;;;;;;5981035;24;20956;-68
2022/03/10 06:05:09;;;;;;;13.57;10.80;;;2.70;99.90;;;;;;5971620;24;20482;-68
2022/03/10 06:07:57;;;;;;;14.13;11.50;;;2.60;99.90;;;;;;5970528;24;20506;-68
2022/03/10 06:10:45;;;;;;;16.40;11.63;;;2.70;99.90;;;;;;5971751;24;20534;-69
2022/03/10 06:13:33;;;;;;;13.80;10.30;;;2.70;99.90;;;;;;5968603;24;20505;-68
2022/03/10 06:16:22;;;;;;;14.40;10.80;;;2.70;99.90;;;;;;5973040;24;20446;-68
2022/03/10 06:19:16;;;;;;;15.47;11.87;;;2.70;99.90;;;;;;5966782;24;20426;-67
2022/03/10 06:22:05;;;;;;;14.77;11.57;;;2.60;99.90;;;;;;5971310;24;20458;-68
2022/03/10 06:24:53;;;;;;;14.90;12.27;;;2.70;99.90;;;;;;5971060;24;20539;-68
2022/03/10 06:27:41;;;;;;;17.23;12.20;;;2.60;99.90;;;;;;5970759;24;20475;-68
2022/03/10 06:30:30;;;;;;;15.83;11.13;;;2.60;99.90;;;;;;5970489;24;20422;-68
2022/03/10 06:33:18;;;;;;;16.27;11.60;;;2.60;99.90;;;;;;5965043;24;20597;-68
2022/03/10 06:36:07;;;;;;;15.23;11.33;;;2.70;99.90;;;;;;5994182;23;20620;-67
2022/03/10 06:38:56;;;;;;;16.50;11.80;;;2.70;99.90;;;;;;5999741;23;20991;-68
2022/03/10 06:41:44;;;;;;;15.83;11.73;;;2.70;99.90;;;;;;6001469;23;20786;-68
2022/03/10 06:44:36;;;;;;;14.37;11.50;;;2.80;99.90;;;;;;6007136;23;20438;-68
2022/03/10 06:47:24;;;;;;;20.40;13.50;;;2.80;99.90;;;;;;6000175;23;20424;-68
2022/03/10 06:50:13;;;;;;;16.90;11.77;;;2.80;99.90;;;;;;5998665;23;20420;-68
2022/03/10 06:53:02;;;;;;;13.73;11.63;;;2.90;99.90;;;;;;5986903;23;21018;-68
2022/03/10 06:55:50;;;;;;;18.20;13.03;;;2.90;99.90;;;;;;6019107;23;20457;-67
2022/03/10 06:58:40;;;;;;;15.80;11.70;;;2.90;99.90;;;;;;6002743;23;20436;-68
2022/03/10 07:01:28;;;;;;;15.53;11.70;;;3.00;99.90;;;;;;5977371;23;20433;-68
2022/03/10 07:04:16;;;;;;;16.00;11.90;;;3.00;99.90;;;;;;6001293;23;20797;-70
2022/03/10 07:07:05;;;;;;;14.80;11.73;;;3.00;99.90;;;;;;5981033;23;20498;-69
2022/03/10 07:09:55;;;;;;;16.63;11.93;;;3.10;99.90;;;;;;5998803;23;20692;-70
2022/03/10 07:12:43;;;;;;;15.23;11.67;;;3.10;99.90;;;;;;5999451;23;20832;-70
2022/03/10 07:15:31;;;;;;;17.20;13.20;;;3.10;99.90;;;;;;5996246;23;20544;-68
2022/03/10 07:18:20;;;;;;;17.63;13.30;;;3.20;99.90;;;;;;6008756;23;20473;-68
2022/03/10 07:21:08;;;;;;;15.53;12.00;;;3.30;99.90;;;;;;6000600;23;20421;-68
2022/03/10 07:23:57;;;;;;;14.60;11.70;;;3.30;99.90;;;;;;5995975;23;20548;-68
2022/03/10 07:26:48;;;;;;;17.27;12.33;;;3.30;99.90;;;;;;6000888;23;20415;-68
2022/03/10 07:29:36;;;;;;;15.37;12.27;;;3.40;99.90;;;;;;5997387;23;20913;-68
2022/03/10 07:32:26;;;;;;;16.43;12.73;;;3.50;99.90;;;;;;5996333;23;20618;-68
2022/03/10 07:35:14;;;;;;;14.13;12.00;;;3.50;99.90;;;;;;5999406;23;20541;-68
2022/03/10 07:38:02;;;;;;;17.07;11.83;;;3.60;99.90;;;;;;5997662;23;20999;-68
2022/03/10 07:40:51;;;;;;;16.53;11.70;;;3.60;99.90;;;;;;5999750;23;20472;-67
2022/03/10 07:43:40;;;;;;;16.27;12.50;;;3.70;99.90;;;;;;5995013;23;20438;-68
2022/03/10 07:46:28;;;;;;;14.70;12.10;;;3.90;99.90;;;;;;5995528;23;20422;-68
2022/03/10 07:49:17;;;;;;;14.20;11.60;;;4.10;99.90;;;;;;5999513;23;20958;-68
2022/03/10 07:52:06;;;;;;;15.80;11.80;;;4.10;99.90;;;;;;5992526;23;20470;-68
2022/03/10 07:54:54;;;;;;;14.73;11.87;;;4.20;99.90;;;;;;6004835;23;20560;-67
2022/03/10 07:57:43;;;;;;;14.43;11.83;;;4.20;99.90;;;;;;6020813;23;20429;-68
2022/03/10 08:00:32;;;;;;;18.97;11.23;;;4.20;99.90;;;;;;6019668;23;20446;-68
2022/03/10 08:03:21;;;;;;;17.20;12.40;;;4.30;99.90;;;;;;6001303;23;20441;-68
2022/03/10 08:06:09;;;;;;;14.77;11.60;;;4.30;99.90;;;;;;6000337;23;20508;-68
2022/03/10 08:08:59;;;;;;;13.30;11.10;;;4.40;99.90;;;;;;5989985;23;20444;-68
2022/03/10 08:11:47;;;;;;;13.87;11.80;;;4.40;99.90;;;;;;6000878;23;20426;-67
2022/03/10 08:14:35;;;;;;;16.07;11.27;;;4.50;99.90;;;;;;5999405;23;20453;-68
2022/03/10 08:17:26;;;;;;;13.43;11.50;;;4.60;99.90;;;;;;6001401;23;20993;-68
2022/03/10 08:20:14;;;;;;;14.63;11.37;;;4.60;99.90;;;;;;6001257;23;20425;-68
2022/03/10 08:23:03;;;;;;;17.20;11.23;;;4.70;99.90;;;;;;6002121;23;21101;-68
2022/03/10 08:25:51;;;;;;;16.57;11.13;;;4.80;99.90;;;;;;6001505;23;20596;-68
2022/03/10 08:28:40;;;;;;;15.53;11.23;;;4.90;99.90;;;;;;6001770;23;20504;-68
2022/03/10 08:31:28;;;;;;;15.30;11.40;;;5.00;99.90;;;;;;6003447;23;20481;-67
2022/03/10 08:34:17;;;;;;;14.90;11.43;;;5.10;99.90;;;;;;6003125;23;20453;-68
2022/03/10 08:37:07;;;;;;;15.87;12.20;;;5.20;99.90;;;;;;6004977;23;20960;-68
2022/03/10 08:39:55;;;;;;;15.93;11.17;;;5.30;99.90;;;;;;5980870;23;20798;-68
2022/03/10 08:42:44;;;;;;;15.23;11.47;;;5.40;99.90;;;;;;6009970;23;20433;-68
2022/03/10 08:45:33;;;;;;;14.83;11.83;;;5.50;99.90;;;;;;6000118;23;20457;-68
2022/03/10 08:48:22;;;;;;;14.07;10.93;;;5.60;99.90;;;;;;5998359;23;20418;-68
2022/03/10 08:51:11;;;;;;;13.97;11.27;;;5.70;99.90;;;;;;5999733;23;20426;-68
2022/03/10 08:54:00;;;;;;;15.00;11.80;;;5.80;99.90;;;;;;6000005;23;20509;-68
2022/03/10 08:56:48;;;;;;;14.53;11.23;;;5.90;99.90;;;;;;6002770;23;20418;-68
2022/03/10 08:59:36;;;;;;;15.40;11.30;;;6.00;99.90;;;;;;5986855;23;20514;-68
2022/03/10 09:02:24;;;;;;;14.67;12.40;;;6.20;99.90;;;;;;6003557;23;20433;-68
2022/03/10 09:05:14;;;;;;;13.93;10.73;;;6.30;99.90;;;;;;6005438;23;20469;-68
2022/03/10 09:08:05;;;;;;;13.23;11.10;;;6.40;99.90;;;;;;6000907;23;20417;-68
2022/03/10 09:10:53;;;;;;;11.63;10.13;;;6.50;99.90;;;;;;6003871;23;20468;-68
2022/03/10 09:13:44;;;;;;;13.40;10.70;;;6.60;99.90;;;;;;5998830;23;20457;-68
2022/03/10 09:16:32;;;;;;;12.67;10.80;;;6.70;99.90;;;;;;5998818;23;20422;-69
2022/03/10 09:19:21;;;;;;;15.87;11.30;;;6.90;99.90;;;;;;5992743;23;20421;-68
2022/03/10 09:22:09;;;;;;;12.60;9.53;;;7.00;99.90;;;;;;6003961;23;21007;-69
2022/03/10 09:25:00;;;;;;;12.23;10.93;;;7.10;99.90;;;;;;6001996;23;20487;-68
2022/03/10 09:27:51;;;;;;;14.77;10.43;;;7.20;99.90;;;;;;6001227;23;20422;-68
2022/03/10 09:30:39;;;;;;;11.37;10.20;;;7.40;99.90;;;;;;6002285;23;20741;-68
2022/03/10 09:33:28;;;;;;;12.20;10.17;;;7.50;99.90;;;;;;6014143;23;20433;-68
2022/03/10 09:36:16;;;;;;;11.57;9.77;;;7.60;99.90;;;;;;5998712;23;20445;-68
2022/03/10 09:39:04;;;;;;;12.80;10.00;;;7.60;99.90;;;;;;5993394;23;20506;-68
2022/03/10 09:41:57;;;;;;;11.87;10.70;;;7.70;99.90;;;;;;6002293;23;20445;-69
2022/03/10 09:44:49;;;;;;;11.70;10.47;;;7.90;99.90;;;;;;5999468;23;20952;-68
2022/03/10 09:47:39;;;;;;;12.73;10.70;;;8.00;99.90;;;;;;6000022;23;20589;-68
2022/03/10 09:50:28;;;;;;;11.63;9.33;;;8.10;99.90;;;;;;5998578;23;20442;-68
2022/03/10 09:53:18;;;;;;;11.10;9.83;;;8.20;99.90;;;;;;5999606;23;20789;-68
2022/03/10 09:56:06;;;;;;;12.60;10.23;;;8.30;99.90;;;;;;5962554;24;20434;-68
2022/03/10 09:58:56;;;;;;;10.00;8.93;;;8.40;99.90;;;;;;5969751;24;20422;-68
2022/03/10 10:01:44;;;;;;;10.63;9.53;;;8.60;99.90;;;;;;5970418;24;20850;-68
2022/03/10 10:04:32;;;;;;;11.77;10.50;;;8.70;99.90;;;;;;5982743;23;20445;-68
2022/03/10 10:07:24;;;;;;;12.20;10.90;;;8.80;99.90;;;;;;5996977;23;20770;-68
2022/03/10 10:10:12;;;;;;;11.73;9.40;;;8.90;99.90;;;;;;5997662;23;20429;-68
2022/03/10 10:13:06;;;;;;;11.27;9.60;;;8.90;99.90;;;;;;5990254;23;20494;-68
2022/03/10 10:15:58;;;;;;;11.50;9.40;;;9.00;99.90;;;;;;5994461;23;21127;-68
2022/03/10 10:18:46;;;;;;;18.70;11.23;;;9.20;99.90;;;;;;5996840;23;20916;-68
2022/03/10 10:21:36;;;;;;;12.03;10.50;;;9.30;99.90;;;;;;6001179;23;20516;-68
2022/03/10 10:24:24;;;;;;;12.53;9.70;;;9.40;99.90;;;;;;5986250;23;20473;-68
2022/03/10 10:27:14;;;;;;;11.07;9.90;;;9.40;99.90;;;;;;5962896;24;20446;-68
2022/03/10 10:30:07;;;;;;;13.40;10.63;;;9.60;99.90;;;;;;5970512;24;20426;-68
2022/03/10 10:32:56;;;;;;;12.43;10.30;;;9.60;99.90;;;;;;5982913;24;20898;-68
2022/03/10 10:35:45;;;;;;;11.13;9.90;;;9.60;99.90;;;;;;5968793;23;20722;-68
2022/03/10 10:38:34;;;;;;;13.00;10.27;;;9.70;99.90;;;;;;5967488;24;20506;-69
2022/03/10 10:41:25;;;;;;;13.17;9.53;;;9.80;99.90;;;;;;5969623;24;20428;-68
2022/03/10 10:44:17;;;;;;;11.27;9.90;;;9.80;99.90;;;;;;5969542;23;20941;-68
2022/03/10 10:47:05;;;;;;;12.33;10.07;;;9.90;99.90;;;;;;5968592;24;20518;-68
2022/03/10 10:50:00;;;;;;;11.07;9.90;;;10.00;99.90;;;;;;5963282;24;20437;-68
2022/03/10 10:52:48;;;;;;;10.33;9.23;;;10.10;99.90;;;;;;5963115;23;20486;-68
2022/03/10 10:55:38;;;;;;;12.13;9.57;;;10.20;99.90;;;;;;5964681;23;20464;-68
2022/03/10 10:58:27;;;;;;;10.97;9.83;;;10.30;99.90;;;;;;5966872;23;20792;-69
2022/03/10 11:01:35;;;;;;;11.43;9.80;;;10.30;99.90;;;;;;5965750;24;20423;-68
2022/03/10 11:04:26;;;;;;;10.27;9.17;;;10.40;99.90;;;;;;5964829;23;20462;-68
2022/03/10 11:07:16;;;;;;;11.00;9.10;;;10.50;99.90;;;;;;5968218;24;20438;-68
2022/03/10 11:10:07;;;;;;;12.70;9.63;;;10.60;99.90;;;;;;5965348;24;20423;-68
2022/03/10 11:12:55;;;;;;;11.13;9.33;;;10.60;99.90;;;;;;5978790;23;20468;-70
2022/03/10 11:15:44;;;;;;;10.97;9.80;;;10.70;99.90;;;;;;5968543;23;20526;-68
2022/03/10 11:18:33;;;;;;;11.57;9.50;;;10.90;99.90;;;;;;5966506;24;20422;-69
2022/03/10 11:21:50;;;;;;;11.13;10.00;;;10.90;99.90;;;;;;5964674;24;21319;-69
2022/03/10 11:24:55;;;;;;;13.20;9.53;;;11.00;99.90;;;;;;5966967;23;20561;-68
2022/03/10 11:27:49;;;;;;;13.13;10.20;;;11.20;99.90;;;;;;5966006;24;20489;-73
2022/03/10 11:30:38;;;;;;;11.63;10.43;;;11.30;99.90;;;;;;5966485;24;20426;-69
2022/03/10 11:33:30;;;;;;;12.87;10.20;;;11.30;99.90;;;;;;5969685;23;20575;-68
2022/03/10 11:36:22;;;;;;;11.43;9.77;;;11.50;99.90;;;;;;5964924;24;20465;-71
2022/03/10 11:39:10;;;;;;;11.97;9.70;;;11.70;99.90;;;;;;5963155;24;20443;-68
2022/03/10 11:42:26;;;;;;;12.13;8.80;;;11.80;99.90;;;;;;5956349;24;20629;-68
2022/03/10 11:45:18;;;;;;;13.53;9.67;;;11.90;99.90;;;;;;5963587;24;20634;-68
2022/03/10 11:48:33;;;;;;;11.70;9.13;;;12.00;99.90;;;;;;5967429;23;20549;-69
2022/03/10 11:51:39;;;;;;;11.70;9.40;;;12.10;99.90;;;;;;5963050;24;20749;-68
2022/03/10 11:54:29;;;;;;;9.93;8.83;;;12.20;99.90;;;;;;5963540;24;20478;-69
2022/03/10 11:57:18;;;;;;;11.93;9.33;;;12.50;99.90;;;;;;5955760;24;20871;-69
2022/03/10 12:00:08;;;;;;;11.80;9.27;;;12.70;99.90;;;;;;5965696;24;20836;-69
2022/03/10 12:02:58;;;;;;;10.70;9.57;;;12.90;99.90;;;;;;5969307;24;20510;-70
2022/03/10 12:05:55;;;;;;;12.00;10.77;;;13.10;99.90;;;;;;5995341;23;21000;-69
2022/03/10 12:09:02;;;;;;;10.77;9.70;;;13.10;99.90;;;;;;5997594;23;20518;-69
2022/03/10 12:11:51;;;;;;;10.23;9.23;;;13.20;99.90;;;;;;6010187;23;20581;-69
2022/03/10 12:14:41;;;;;;;10.90;9.80;;;13.40;99.90;;;;;;5995160;23;21235;-69
2022/03/10 12:17:50;;;;;;;11.80;8.97;;;13.70;99.90;;;;;;5993707;23;21025;-69
2022/03/10 12:20:41;;;;;;;11.47;10.30;;;14.00;99.90;;;;;;6003579;23;20502;-69
2022/03/10 12:23:31;;;;;;;10.83;9.73;;;14.30;99.90;;;;;;5995642;23;20441;-69
2022/03/10 12:26:26;;;;;;;10.80;9.70;;;14.50;99.90;;;;;;5971547;24;20442;-69
2022/03/10 12:29:15;;;;;;;11.50;9.63;;;15.10;99.90;;;;;;5971684;24;20674;-69
2022/03/10 12:32:09;;;;;;;11.13;10.07;;;15.50;99.90;;;;;;5966307;24;20522;-69
2022/03/10 12:34:59;;;;;;;11.27;10.17;;;16.20;99.90;;;;;;5987741;23;20536;-69
2022/03/10 12:37:48;;;;;;;11.57;9.80;;;16.90;99.80;;;;;;6001124;23;20829;-70
2022/03/10 12:40:38;;;;;;;12.53;10.30;;;18.00;99.00;;;;;;6000719;23;20504;-70
2022/03/10 12:43:27;;;;;;;10.33;9.17;;;19.30;94.60;;;;;;6000606;23;20460;-68
2022/03/10 12:46:15;;;;;;;11.40;10.30;;;19.70;84.40;;;;;;5969526;24;20522;-68
2022/03/10 12:49:07;;;;;;;11.63;10.50;;;20.40;80.40;;;;;;5973687;24;20445;-68
2022/03/10 12:51:57;;;;;;;9.90;9.00;;;22.00;79.10;;;;;;5961823;24;20501;-68
2022/03/10 12:54:47;;;;;;;9.50;8.70;;;24.20;67.40;;;;;;5969974;24;20458;-68
2022/03/10 12:57:37;;;;;;;9.33;8.53;;;26.10;56.50;;;;;;5967158;24;20506;-69
2022/03/10 13:00:25;;;;;;;8.70;8.10;;;27.30;52.00;;;;;;5969672;23;20427;-69
2022/03/10 13:03:13;;;;;;;9.27;8.37;;;28.10;46.10;;;;;;5968540;24;20522;-69
2022/03/10 13:06:08;;;;;;;9.80;8.90;;;27.60;44.20;;;;;;5969631;23;20445;-69
2022/03/10 13:08:57;;;;;;;8.70;8.00;;;25.80;41.80;;;;;;5969527;24;20867;-69
2022/03/10 13:11:46;;;;;;;9.57;8.77;;;25.40;43.30;;;;;;5962593;24;20553;-69
2022/03/10 13:14:40;;;;;;;9.50;8.60;;;26.40;42.20;;;;;;5971122;23;20449;-70
2022/03/10 13:17:33;;;;;;;9.43;8.70;;;26.90;41.30;;;;;;5996396;23;20839;-70
2022/03/10 13:20:23;;;;;;;9.70;8.90;;;27.30;41.10;;;;;;5998905;23;20505;-69
2022/03/10 13:23:12;;;;;;;9.43;8.63;;;27.70;40.90;;;;;;5994002;23;20441;-69
2022/03/10 13:26:01;;;;;;;9.80;8.90;;;28.00;40.40;;;;;;5995048;23;20952;-70
2022/03/10 13:28:49;;;;;;;8.83;8.10;;;27.40;39.50;;;;;;6008154;23;20449;-70
2022/03/10 13:31:37;;;;;;;9.40;8.70;;;27.30;41.10;;;;;;5993627;23;20739;-69
2022/03/10 13:34:27;;;;;;;9.30;8.60;;;27.40;41.70;;;;;;5995106;23;20846;-70
2022/03/10 13:37:16;;;;;;;8.80;8.00;;;27.20;39.40;;;;;;5997277;23;20561;-69
2022/03/10 13:40:07;;;;;;;9.10;8.30;;;26.90;39.70;;;;;;5996765;23;20429;-70
2022/03/10 13:42:58;;;;;;;8.80;8.10;;;26.40;40.10;;;;;;5993259;23;20560;-68
2022/03/10 13:45:49;;;;;;;8.47;7.77;;;26.40;39.80;;;;;;5994811;23;20441;-70
2022/03/10 13:48:45;;;;;;;10.17;8.60;;;26.80;41.10;;;;;;5997757;23;20570;-69
2022/03/10 13:51:37;;;;;;;8.70;8.00;;;26.80;41.80;;;;;;5996564;23;20426;-69
2022/03/10 13:54:27;;;;;;;9.40;8.60;;;26.60;39.60;;;;;;5995898;23;20453;-70
2022/03/10 13:57:17;;;;;;;9.10;8.20;;;26.40;39.70;;;;;;5995495;23;20562;-69
2022/03/10 14:00:06;;;;;;;9.57;8.77;;;25.70;39.60;;;;;;5997121;23;20466;-70
2022/03/10 14:02:55;;;;;;;9.87;9.03;;;24.80;41.80;;;;;;5980661;23;20482;-68
2022/03/10 14:05:45;;;;;;;9.80;8.90;;;23.90;42.10;;;;;;5997412;23;20453;-68
2022/03/10 14:08:36;;;;;;;9.57;8.53;;;23.10;44.40;;;;;;5995081;23;20425;-68
2022/03/10 14:11:28;;;;;;;10.17;9.27;;;22.60;44.70;;;;;;5992977;23;20897;-68
2022/03/10 14:14:31;;;;;;;11.70;10.27;;;21.80;43.40;;;;;;5991918;23;20480;-67
2022/03/10 14:17:20;;;;;;;10.67;9.67;;;21.00;44.20;;;;;;5997242;23;20477;-68
2022/03/10 14:20:09;;;;;;;10.10;9.20;;;20.30;46.40;;;;;;5986057;23;20421;-67
2022/03/10 14:23:05;;;;;;;10.80;9.70;;;20.10;47.80;;;;;;5995359;23;21063;-68
2022/03/10 14:25:55;;;;;;;13.87;9.50;;;19.80;49.90;;;;;;5972486;24;20546;-67
2022/03/10 14:28:46;;;;;;;10.87;9.87;;;19.40;49.70;;;;;;5972263;24;20509;-69
2022/03/10 14:31:35;;;;;;;11.30;10.20;;;18.90;48.60;;;;;;5969073;24;20423;-68
2022/03/10 14:34:23;;;;;;;11.20;9.93;;;18.40;49.70;;;;;;5965350;24;20510;-68
2022/03/10 14:37:12;;;;;;;11.00;9.90;;;17.90;50.00;;;;;;5970069;24;20509;-67
2022/03/10 14:40:00;;;;;;;11.23;10.10;;;17.60;51.80;;;;;;5973110;24;20418;-68
2022/03/10 14:42:48;;;;;;;10.90;9.53;;;17.30;52.50;;;;;;5969339;24;20498;-68
2022/03/10 14:45:37;;;;;;;11.63;10.50;;;17.10;52.10;;;;;;5970866;24;20545;-69